createdAt,value
2018-10-17T00:02:08.228Z,8.37
2018-10-17T00:04:37.320Z,8.90
2018-10-17T00:07:06.411Z,9.00
2018-10-17T00:09:35.516Z,8.87
2018-10-17T00:12:05.460Z,9.60
2018-10-17T00:14:35.533Z,9.54
2018-10-17T00:17:06.718Z,9.86
2018-10-17T00:19:35.855Z,9.17
2018-10-17T00:22:05.178Z,9.70
2018-10-17T00:24:35.105Z,9.20
2018-10-17T00:27:04.198Z,10.47
2018-10-17T00:29:33.339Z,9.63
2018-10-17T00:32:02.475Z,8.93
2018-10-17T00:34:31.577Z,10.23
2018-10-17T00:37:00.663Z,11.07
2018-10-17T00:39:29.682Z,10.63
2018-10-17T00:41:58.880Z,11.33
2018-10-17T00:44:27.951Z,10.03
2018-10-17T00:46:57.014Z,10.17
2018-10-17T00:49:26.024Z,9.43
2018-10-17T00:51:55.041Z,9.60
2018-10-17T00:54:24.082Z,10.03
2018-10-17T00:56:53.173Z,9.17
2018-10-17T00:59:22.244Z,9.57
2018-10-17T01:01:51.717Z,9.25
2018-10-17T01:04:21.545Z,8.50
2018-10-17T01:06:51.896Z,8.63
2018-10-17T01:09:21.897Z,8.53
2018-10-17T01:11:51.626Z,9.50
2018-10-17T01:14:20.828Z,9.75
2018-10-17T01:16:50.328Z,9.80
2018-10-17T01:19:19.546Z,10.25
2018-10-17T01:21:48.647Z,9.03
2018-10-17T01:24:17.705Z,8.80
2018-10-17T01:26:46.832Z,8.97
2018-10-17T01:29:16.038Z,8.90
2018-10-17T01:31:46.381Z,9.50
2018-10-17T01:34:16.012Z,10.00
2018-10-17T01:36:45.447Z,9.63
2018-10-17T01:39:14.822Z,9.60
2018-10-17T01:41:44.052Z,9.18
2018-10-17T01:44:13.348Z,9.37
2018-10-17T01:46:42.569Z,9.03
2018-10-17T01:49:11.736Z,9.43
2018-10-17T01:51:40.834Z,9.57
2018-10-17T01:54:10.206Z,8.87
2018-10-17T01:56:39.544Z,8.75
2018-10-17T01:59:08.828Z,9.13
2018-10-17T02:01:38.021Z,9.17
2018-10-17T02:04:07.817Z,10.23
2018-10-17T02:06:36.988Z,9.03
2018-10-17T02:09:08.980Z,9.63
2018-10-17T02:11:38.733Z,9.77
2018-10-17T02:14:08.635Z,10.70
2018-10-17T02:16:37.773Z,10.60
2018-10-17T02:19:07.835Z,10.40
2018-10-17T02:21:36.952Z,9.45
2018-10-17T02:24:07.644Z,10.03
2018-10-17T02:26:36.943Z,8.60
2018-10-17T02:29:06.692Z,8.87
2018-10-17T02:31:36.348Z,9.13
2018-10-17T02:34:05.591Z,9.53
2018-10-17T02:36:34.796Z,9.73
2018-10-17T02:39:05.244Z,8.68
2018-10-17T02:41:34.336Z,9.27
2018-10-17T02:44:04.227Z,9.33
2018-10-17T02:46:33.304Z,9.75
2018-10-17T02:49:02.666Z,9.20
2018-10-17T02:51:31.823Z,9.77
2018-10-17T02:54:01.321Z,10.30
2018-10-17T02:56:30.486Z,10.30
2018-10-17T02:58:59.640Z,10.77
2018-10-17T03:01:29.142Z,10.57
2018-10-17T03:03:59.199Z,9.70
2018-10-17T03:06:29.166Z,9.53
2018-10-17T03:08:58.642Z,8.73
2018-10-17T03:11:27.990Z,9.30
2018-10-17T03:13:57.308Z,9.97
2018-10-17T03:16:26.381Z,10.30
2018-10-17T03:18:55.848Z,9.90
2018-10-17T03:21:24.867Z,10.63
2018-10-17T03:23:54.059Z,10.00
2018-10-17T03:26:23.672Z,11.40
2018-10-17T03:28:53.095Z,10.43
2018-10-17T03:31:22.564Z,9.50
2018-10-17T03:33:51.586Z,9.73
2018-10-17T03:36:21.259Z,10.33
2018-10-17T03:38:50.941Z,10.48
2018-10-17T03:41:20.101Z,9.87
2018-10-17T03:43:49.375Z,10.43
2018-10-17T03:46:18.633Z,10.70
2018-10-17T03:48:47.893Z,10.40
2018-10-17T03:51:18.341Z,10.72
2018-10-17T03:53:47.534Z,10.33
2018-10-17T03:56:16.764Z,10.13
2018-10-17T03:58:47.668Z,10.10
2018-10-17T04:01:17.314Z,9.67
2018-10-17T04:03:46.481Z,10.03
2018-10-17T04:06:16.953Z,10.73
2018-10-17T04:08:46.840Z,11.12
2018-10-17T04:11:16.856Z,11.87
2018-10-17T04:13:45.975Z,11.70
2018-10-17T04:16:15.229Z,10.80
2018-10-17T04:18:44.503Z,11.08
2018-10-17T04:21:13.770Z,11.53
2018-10-17T04:23:43.379Z,12.20
2018-10-17T04:26:12.681Z,11.97
2018-10-17T04:28:41.913Z,11.57
2018-10-17T04:31:11.881Z,11.90
2018-10-17T04:33:41.374Z,11.87
2018-10-17T04:36:10.857Z,11.43
2018-10-17T04:38:40.286Z,11.33
2018-10-17T04:41:09.767Z,11.80
2018-10-17T04:43:40.024Z,11.50
2018-10-17T04:46:09.155Z,11.87
2018-10-17T04:48:38.840Z,12.03
2018-10-17T04:51:09.688Z,11.43
2018-10-17T04:53:38.935Z,11.43
2018-10-17T04:56:09.047Z,10.50
2018-10-17T04:58:38.572Z,13.18
2018-10-17T05:01:08.325Z,11.73
2018-10-17T05:03:37.569Z,11.40
2018-10-17T05:06:06.885Z,12.90
2018-10-17T05:08:36.108Z,11.23
2018-10-17T05:11:06.019Z,11.67
2018-10-17T05:13:35.365Z,12.33
2018-10-17T05:16:04.706Z,11.12
2018-10-17T05:18:34.226Z,12.83
2018-10-17T05:21:03.501Z,11.57
2018-10-17T05:23:33.386Z,11.37
2018-10-17T05:26:03.299Z,13.08
2018-10-17T05:28:34.235Z,12.68
2018-10-17T05:31:04.955Z,12.10
2018-10-17T05:33:34.254Z,10.93
2018-10-17T05:36:03.570Z,12.27
2018-10-17T05:38:32.884Z,11.97
2018-10-17T05:41:02.093Z,12.55
2018-10-17T05:43:31.422Z,13.23
2018-10-17T05:46:00.675Z,12.63
2018-10-17T05:48:29.823Z,12.03
2018-10-17T05:50:59.171Z,12.07
2018-10-17T05:53:28.284Z,12.60
2018-10-17T05:55:57.579Z,13.43
2018-10-17T05:58:27.199Z,14.60
2018-10-17T06:00:57.346Z,13.32
2018-10-17T06:03:26.841Z,13.73
2018-10-17T06:05:56.464Z,12.53
2018-10-17T06:08:26.519Z,13.23
2018-10-17T06:10:55.930Z,14.77
2018-10-17T06:13:25.457Z,13.33
2018-10-17T06:15:54.641Z,14.13
2018-10-17T06:18:24.159Z,15.67
2018-10-17T06:20:53.562Z,15.27
2018-10-17T06:23:22.802Z,13.70
2018-10-17T06:25:52.637Z,13.95
2018-10-17T06:28:22.026Z,13.83
2018-10-17T06:30:51.304Z,13.90
2018-10-17T06:33:20.600Z,14.27
2018-10-17T06:35:50.456Z,13.73
2018-10-17T06:38:19.914Z,14.80
2018-10-17T06:40:49.185Z,14.80
2018-10-17T06:43:18.299Z,16.67
2018-10-17T06:45:47.648Z,14.98
2018-10-17T06:48:16.968Z,14.60
2018-10-17T06:50:46.233Z,13.33
2018-10-17T06:53:15.592Z,13.37
2018-10-17T06:55:44.984Z,13.83
2018-10-17T06:58:15.070Z,13.50
2018-10-17T07:00:44.338Z,12.50
2018-10-17T07:03:14.200Z,12.80
2018-10-17T07:10:40.835Z,12.93
2018-10-17T07:13:10.025Z,12.05
2018-10-17T07:15:39.679Z,14.05
2018-10-17T07:18:08.823Z,12.30
2018-10-17T07:20:39.483Z,11.45
2018-10-17T07:23:08.689Z,12.13
2018-10-17T07:25:37.789Z,12.47
2018-10-17T07:28:07.204Z,12.20
2018-10-17T07:30:38.135Z,11.63
2018-10-17T07:33:07.344Z,12.33
2018-10-17T07:35:36.627Z,11.43
2018-10-17T07:38:05.979Z,11.63
2018-10-17T07:40:35.269Z,11.55
2018-10-17T07:43:04.733Z,10.97
2018-10-17T07:45:34.101Z,12.33
2018-10-17T07:48:03.427Z,11.77
2018-10-17T07:50:32.697Z,12.27
2018-10-17T07:53:01.842Z,13.00
2018-10-17T07:55:31.518Z,13.37
2018-10-17T07:58:01.268Z,12.73
2018-10-17T08:00:30.491Z,12.28
2018-10-17T08:03:01.136Z,13.07
2018-10-17T08:05:31.187Z,12.70
2018-10-17T08:08:00.324Z,13.00
2018-10-17T08:10:29.449Z,11.83
2018-10-17T08:12:58.719Z,13.00
2018-10-17T08:15:28.231Z,12.00
2018-10-17T08:17:57.532Z,12.37
2018-10-17T08:20:27.981Z,12.58
2018-10-17T08:22:57.361Z,12.97
2018-10-17T08:25:26.708Z,13.20
2018-10-17T08:27:55.955Z,14.13
2018-10-17T08:30:25.292Z,12.73
2018-10-17T08:32:54.744Z,12.10
2018-10-17T08:35:24.245Z,12.13
2018-10-17T08:37:53.751Z,11.47
2018-10-17T08:40:22.680Z,11.67
2018-10-17T08:42:52.050Z,11.53
2018-10-17T08:45:21.341Z,11.27
2018-10-17T08:47:50.555Z,10.77
2018-10-17T08:50:19.983Z,10.47
2018-10-17T08:52:49.265Z,11.03
2018-10-17T08:55:18.708Z,10.23
2018-10-17T08:57:48.282Z,10.68
2018-10-17T09:00:17.650Z,10.20
2018-10-17T09:02:47.343Z,10.07
2018-10-17T09:05:16.878Z,10.10
2018-10-17T09:07:46.326Z,11.10
2018-10-17T09:10:16.912Z,10.87
2018-10-17T09:12:46.263Z,11.00
2018-10-17T09:15:15.793Z,10.93
2018-10-17T09:17:45.158Z,11.88
2018-10-17T09:20:15.215Z,12.33
2018-10-17T09:22:44.258Z,12.13
2018-10-17T09:25:13.778Z,11.43
2018-10-17T09:27:43.610Z,10.57
2018-10-17T09:30:13.516Z,11.77
2018-10-17T09:32:43.041Z,11.40
2018-10-17T09:35:13.128Z,11.00
2018-10-17T09:37:42.949Z,11.53
2018-10-17T09:40:12.832Z,12.28
2018-10-17T09:42:42.513Z,11.83
2018-10-17T09:45:12.292Z,11.85
2018-10-17T09:47:41.755Z,12.05
2018-10-17T09:50:11.583Z,12.83
2018-10-17T09:52:41.652Z,12.53
2018-10-17T09:55:11.135Z,12.70
2018-10-17T09:57:40.380Z,12.60
2018-10-17T10:00:15.003Z,14.20
2018-10-17T10:02:44.094Z,14.70
2018-10-17T10:05:13.592Z,13.00
2018-10-17T10:07:43.241Z,12.73
2018-10-17T10:10:12.769Z,12.23
2018-10-17T10:12:42.497Z,12.27
2018-10-17T10:15:12.981Z,12.30
2018-10-17T10:17:42.663Z,13.03
2018-10-17T10:20:13.147Z,14.15
2018-10-17T10:22:42.433Z,13.55
2018-10-17T10:25:11.969Z,13.10
2018-10-17T10:27:41.388Z,13.32
2018-10-17T10:30:11.896Z,14.80
2018-10-17T10:32:41.287Z,14.40
2018-10-17T10:35:10.667Z,13.53
2018-10-17T10:37:40.674Z,14.53
2018-10-17T10:40:10.308Z,14.28
2018-10-17T10:42:39.595Z,14.50
2018-10-17T10:45:08.868Z,14.10
2018-10-17T10:47:38.206Z,15.47
2018-10-17T10:50:09.677Z,14.63
2018-10-17T10:52:39.407Z,15.40
2018-10-17T10:55:08.735Z,15.15
2018-10-17T10:57:38.018Z,16.17
2018-10-17T11:00:08.187Z,15.60
2018-10-17T11:02:37.680Z,16.30
2018-10-17T11:05:07.200Z,16.13
2018-10-17T11:07:36.546Z,15.77
2018-10-17T11:10:12.068Z,15.43
2018-10-17T11:12:42.573Z,14.67
2018-10-17T11:15:12.368Z,16.00
2018-10-17T11:17:42.362Z,15.43
2018-10-17T11:20:11.937Z,15.07
2018-10-17T11:22:41.389Z,17.23
2018-10-17T11:25:11.099Z,16.03
2018-10-17T11:27:40.265Z,15.80
2018-10-17T11:30:11.386Z,15.67
2018-10-17T11:32:41.052Z,16.25
2018-10-17T11:35:12.477Z,17.27
2018-10-17T11:37:42.809Z,15.78
2018-10-17T11:40:12.191Z,16.57
2018-10-17T11:42:41.740Z,16.50
2018-10-17T11:45:11.451Z,16.37
2018-10-17T11:47:41.815Z,17.10
2018-10-17T11:50:12.142Z,16.80
2018-10-17T11:52:41.568Z,16.60
2018-10-17T11:55:11.479Z,17.07
2018-10-17T11:57:40.725Z,16.37
2018-10-17T12:00:12.395Z,16.87
2018-10-17T12:02:41.927Z,17.40
2018-10-17T12:05:14.294Z,15.63
2018-10-17T12:07:43.943Z,15.43
2018-10-17T12:10:13.201Z,16.00
2018-10-17T12:12:42.932Z,15.83
2018-10-17T12:15:14.213Z,15.63
2018-10-17T12:20:20.874Z,16.70
2018-10-17T12:22:50.273Z,15.17
2018-10-17T12:25:20.096Z,14.40
2018-10-17T12:27:49.582Z,15.72
2018-10-17T12:30:19.217Z,15.30
2018-10-17T12:32:48.561Z,14.80
2018-10-17T12:35:17.879Z,14.67
2018-10-17T12:37:47.399Z,14.55
2018-10-17T12:40:16.953Z,16.17
2018-10-17T12:42:46.194Z,16.07
2018-10-17T12:45:15.711Z,14.60
2018-10-17T12:47:45.298Z,15.60
2018-10-17T12:50:14.656Z,16.03
2018-10-17T12:52:44.165Z,15.80
2018-10-17T12:55:14.204Z,16.20
2018-10-17T12:57:43.553Z,15.60
2018-10-17T13:00:12.983Z,16.13
2018-10-17T13:02:42.284Z,15.30
2018-10-17T13:05:11.828Z,16.53
2018-10-17T13:07:41.812Z,16.33
2018-10-17T13:10:12.129Z,15.60
2018-10-17T13:12:42.410Z,15.33
2018-10-17T13:15:14.240Z,15.20
2018-10-17T13:17:45.678Z,17.27
2018-10-17T13:20:15.606Z,16.73
2018-10-17T13:22:45.078Z,16.50
2018-10-17T13:25:14.676Z,17.93
2018-10-17T13:27:43.739Z,17.20
2018-10-17T13:30:13.096Z,20.45
2018-10-17T13:32:42.762Z,18.75
2018-10-17T13:35:12.549Z,21.12
2018-10-17T13:37:41.728Z,19.85
2018-10-17T13:40:11.913Z,20.20
2018-10-17T13:42:41.044Z,18.97
2018-10-17T13:45:10.373Z,19.50
2018-10-17T13:47:39.950Z,22.53
2018-10-17T13:50:09.175Z,22.27
2018-10-17T13:52:38.570Z,21.95
2018-10-17T13:55:08.546Z,21.82
2018-10-17T13:57:37.832Z,21.85
2018-10-17T14:00:11.037Z,24.23
2018-10-17T14:02:40.636Z,24.27
2018-10-17T14:05:10.269Z,26.53
2018-10-17T14:07:39.613Z,26.00
2018-10-17T14:10:09.055Z,25.62
2018-10-17T14:12:38.279Z,29.00
2018-10-17T14:15:07.486Z,27.55
2018-10-17T14:17:36.606Z,28.10
2018-10-17T14:20:05.826Z,28.53
2018-10-17T14:22:34.938Z,26.97
2018-10-17T14:25:04.235Z,29.77
2018-10-17T14:27:33.512Z,28.42
2018-10-17T14:30:03.082Z,27.57
2018-10-17T14:32:32.578Z,27.13
2018-10-17T14:35:01.938Z,27.90
2018-10-17T14:37:31.187Z,27.07
2018-10-17T14:40:00.672Z,26.17
2018-10-17T14:42:30.124Z,28.57
2018-10-17T14:44:59.594Z,29.00
2018-10-17T14:47:28.761Z,28.67
2018-10-17T14:49:57.852Z,27.22
2018-10-17T14:52:27.070Z,29.63
2018-10-17T14:54:56.351Z,28.73
2018-10-17T14:57:25.654Z,28.77
2018-10-17T14:59:55.082Z,29.80
2018-10-17T15:02:24.378Z,27.77
2018-10-17T15:05:00.311Z,28.70
2018-10-17T15:07:29.497Z,29.23
2018-10-17T15:09:58.745Z,26.85
2018-10-17T15:12:27.842Z,27.70
2018-10-17T15:14:57.009Z,29.10
2018-10-17T15:17:26.287Z,27.53
2018-10-17T15:19:56.437Z,25.32
2018-10-17T15:22:26.071Z,28.70
2018-10-17T15:24:55.337Z,25.70
2018-10-17T15:27:24.517Z,26.87
2018-10-17T15:29:53.900Z,28.10
2018-10-17T15:32:23.099Z,26.75
2018-10-17T15:34:52.213Z,26.50
2018-10-17T15:37:21.518Z,27.50
2018-10-17T15:39:50.659Z,28.10
2018-10-17T15:42:19.898Z,28.57
2018-10-17T15:44:49.161Z,28.07
2018-10-17T15:47:18.807Z,26.83
2018-10-17T15:49:48.153Z,25.40
2018-10-17T15:52:17.430Z,25.33
2018-10-17T15:54:46.764Z,25.52
2018-10-17T15:57:16.293Z,26.20
2018-10-17T15:59:45.547Z,23.90
2018-10-17T16:02:15.017Z,26.27
2018-10-17T16:04:44.485Z,27.33
2018-10-17T16:07:13.933Z,26.37
2018-10-17T16:09:43.259Z,25.70
2018-10-17T16:12:12.602Z,25.83
2018-10-17T16:14:41.960Z,25.37
2018-10-17T16:17:11.207Z,26.80
2018-10-17T16:19:40.449Z,27.17
2018-10-17T16:22:11.080Z,26.27
2018-10-17T16:24:40.275Z,28.63
2018-10-17T16:27:09.424Z,27.97
2018-10-17T16:29:38.911Z,29.93
2018-10-17T16:32:08.304Z,30.00
2018-10-17T16:34:38.094Z,30.80
2018-10-17T16:37:07.148Z,30.30
2018-10-17T16:39:36.263Z,31.20
2018-10-17T16:42:05.974Z,31.00
2018-10-17T16:44:35.092Z,30.15
2018-10-17T16:47:04.612Z,30.47
2018-10-17T16:49:33.930Z,30.80
2018-10-17T16:52:03.053Z,30.93
2018-10-17T16:54:32.472Z,31.33
2018-10-17T16:57:01.713Z,32.53
2018-10-17T16:59:30.983Z,31.07
2018-10-17T17:02:00.144Z,30.95
2018-10-17T17:04:29.423Z,32.20
2018-10-17T17:07:00.038Z,31.63
2018-10-17T17:09:29.201Z,32.43
2018-10-17T17:11:58.282Z,32.13
2018-10-17T17:14:27.565Z,32.40
2018-10-17T17:16:56.701Z,32.42
2018-10-17T17:19:26.593Z,38.67
2018-10-17T17:21:56.139Z,32.28
2018-10-17T17:24:25.368Z,34.93
2018-10-17T17:26:54.554Z,30.57
2018-10-17T17:29:23.736Z,31.57
2018-10-17T17:31:53.144Z,31.60
2018-10-17T17:34:22.603Z,31.83
2018-10-17T17:36:51.857Z,31.57
2018-10-17T17:39:21.285Z,33.00
2018-10-17T17:41:50.372Z,32.35
2018-10-17T17:44:19.673Z,33.57
2018-10-17T17:46:49.229Z,30.80
2018-10-17T17:49:18.647Z,33.47
2018-10-17T17:51:48.520Z,32.25
2018-10-17T17:54:18.271Z,32.03
2018-10-17T17:56:47.568Z,33.13
2018-10-17T18:02:00.259Z,33.00
2018-10-17T18:04:29.710Z,32.10
2018-10-17T18:06:59.440Z,34.77
2018-10-17T18:09:30.512Z,34.17
2018-10-17T18:12:01.210Z,31.83
2018-10-17T18:14:30.253Z,33.57
2018-10-17T18:16:59.555Z,31.70
2018-10-17T18:19:28.756Z,32.05
2018-10-17T18:21:58.518Z,33.17
2018-10-17T18:24:28.186Z,31.53
2018-10-17T18:26:57.373Z,31.67
2018-10-17T18:29:26.780Z,32.30
2018-10-17T18:31:56.878Z,32.27
2018-10-17T18:34:26.269Z,33.70
2018-10-17T18:36:55.421Z,32.00
2018-10-17T18:39:24.739Z,30.67
2018-10-17T18:41:54.225Z,32.23
2018-10-17T18:44:23.736Z,32.67
2018-10-17T18:46:53.221Z,32.87
2018-10-17T18:49:22.844Z,33.50
2018-10-17T18:51:52.580Z,31.70
2018-10-17T18:54:22.072Z,30.72
2018-10-17T18:56:51.607Z,32.50
2018-10-17T18:59:23.876Z,33.13
2018-10-17T19:01:53.967Z,31.87
2018-10-17T19:04:23.193Z,32.93
2018-10-17T19:06:52.549Z,32.97
2018-10-17T19:09:21.734Z,32.30
2018-10-17T19:11:50.967Z,30.10
2018-10-17T19:14:20.124Z,30.30
2018-10-17T19:16:49.237Z,31.67
2018-10-17T19:19:18.658Z,30.17
2018-10-17T19:21:47.878Z,30.63
2018-10-17T19:24:17.859Z,28.87
2018-10-17T19:26:47.133Z,28.97
2018-10-17T19:29:16.364Z,30.50
2018-10-17T19:31:46.051Z,30.60
2018-10-17T19:34:15.814Z,28.47
2018-10-17T19:36:45.414Z,30.97
2018-10-17T19:39:15.590Z,27.73
2018-10-17T19:41:45.537Z,30.62
2018-10-17T19:46:52.231Z,30.03
2018-10-17T19:49:22.281Z,30.33
2018-10-17T19:51:52.456Z,30.70
2018-10-17T19:54:21.733Z,27.13
2018-10-17T19:56:51.311Z,27.67
2018-10-17T19:59:21.681Z,28.32
2018-10-17T20:01:51.200Z,29.90
2018-10-17T20:04:20.845Z,30.57
2018-10-17T20:06:50.020Z,29.23
2018-10-17T20:09:19.369Z,30.43
2018-10-17T20:11:48.677Z,27.62
2018-10-17T20:14:18.233Z,28.07
2018-10-17T20:16:47.280Z,28.13
2018-10-17T20:19:16.691Z,30.73
2018-10-17T20:21:46.633Z,29.33
2018-10-17T20:24:15.945Z,28.52
2018-10-17T20:26:45.208Z,30.93
2018-10-17T20:29:14.934Z,31.02
2018-10-17T20:31:44.286Z,30.27
2018-10-17T20:34:14.883Z,29.43
2018-10-17T20:36:43.991Z,32.50
2018-10-17T20:39:14.708Z,31.53
2018-10-17T20:41:43.961Z,29.77
2018-10-17T20:44:14.258Z,31.17
2018-10-17T20:46:43.458Z,31.62
2018-10-17T20:49:12.726Z,31.60
2018-10-17T20:51:42.502Z,31.37
2018-10-17T20:54:11.698Z,31.20
2018-10-17T20:56:40.767Z,32.00
2018-10-17T20:59:09.832Z,31.17
2018-10-17T21:01:38.948Z,31.50
2018-10-17T21:04:08.061Z,31.75
2018-10-17T21:06:37.307Z,31.50
2018-10-17T21:09:11.389Z,30.50
2018-10-17T21:11:41.109Z,29.57
2018-10-17T21:14:11.476Z,29.87
2018-10-17T21:16:41.670Z,30.47
2018-10-17T21:19:10.958Z,27.87
2018-10-17T21:21:40.380Z,28.50
2018-10-17T21:24:09.994Z,29.87
2018-10-17T21:26:39.229Z,28.98
2018-10-17T21:29:08.296Z,26.75
2018-10-17T21:31:37.507Z,27.50
2018-10-17T21:34:06.768Z,28.87
2018-10-17T21:36:35.968Z,28.37
2018-10-17T21:39:08.987Z,26.43
2018-10-17T21:41:38.117Z,27.90
2018-10-17T21:44:08.331Z,28.87
2018-10-17T21:46:37.445Z,27.73
2018-10-17T21:49:08.020Z,27.22
2018-10-17T21:51:37.161Z,25.70
2018-10-17T21:54:06.705Z,24.90
2018-10-17T21:56:35.905Z,26.73
2018-10-17T21:59:05.640Z,27.00
2018-10-17T22:01:34.716Z,28.98
2018-10-17T22:04:04.092Z,28.38
2018-10-17T22:06:33.216Z,30.60
2018-10-17T22:09:02.331Z,30.62
2018-10-17T22:11:31.895Z,30.37
2018-10-17T22:14:01.392Z,28.33
2018-10-17T22:16:35.829Z,28.43
2018-10-17T22:19:05.198Z,27.63
2018-10-17T22:21:34.275Z,27.47
2018-10-17T22:24:03.368Z,30.80
2018-10-17T22:26:32.564Z,27.40
2018-10-17T22:29:01.860Z,28.83
2018-10-17T22:31:31.217Z,30.37
2018-10-17T22:34:01.128Z,29.67
2018-10-17T22:36:30.335Z,31.30
2018-10-17T22:38:59.456Z,29.63
2018-10-17T22:41:28.565Z,32.30
2018-10-17T22:43:57.651Z,30.70
2018-10-17T22:46:26.905Z,33.53
2018-10-17T22:48:55.993Z,32.83
2018-10-17T22:51:25.056Z,31.73
2018-10-17T22:53:54.132Z,31.90
2018-10-17T22:56:23.276Z,30.33
2018-10-17T22:58:52.618Z,31.00
2018-10-17T23:01:22.096Z,32.13
2018-10-17T23:03:51.216Z,31.97
2018-10-17T23:06:20.351Z,31.67
2018-10-17T23:08:49.398Z,31.70
2018-10-17T23:11:18.541Z,30.90
2018-10-17T23:13:47.662Z,32.97
2018-10-17T23:16:16.771Z,32.07
2018-10-17T23:18:45.901Z,30.53
2018-10-17T23:21:14.997Z,33.40
2018-10-17T23:23:44.203Z,31.80
2018-10-17T23:26:13.403Z,30.37
2018-10-17T23:28:42.559Z,31.17
2018-10-17T23:31:11.712Z,33.53
2018-10-17T23:33:41.212Z,35.17
2018-10-17T23:36:11.646Z,30.27
2018-10-17T23:38:40.737Z,31.20
2018-10-17T23:41:10.851Z,30.20
2018-10-17T23:43:40.785Z,29.27
2018-10-17T23:46:10.818Z,34.60
2018-10-17T23:48:41.202Z,34.60
2018-10-17T23:51:11.063Z,34.27
2018-10-17T23:53:41.104Z,32.07
2018-10-17T23:56:10.387Z,34.83
